sensor_id;sensor_type;location;lat;lon;timestamp;temperature;humidity
74809;DHT22;63338;39.544;2.596;2023-08-24T00:00:23;28.60;80.30
74809;DHT22;63338;39.544;2.596;2023-08-24T00:02:49;28.50;80.30
74809;DHT22;63338;39.544;2.596;2023-08-24T00:05:15;28.60;80.40
74809;DHT22;63338;39.544;2.596;2023-08-24T00:07:42;28.50;80.30
74809;DHT22;63338;39.544;2.596;2023-08-24T00:10:08;28.50;80.20
74809;DHT22;63338;39.544;2.596;2023-08-24T00:12:38;28.40;80.30
74809;DHT22;63338;39.544;2.596;2023-08-24T00:15:08;28.40;80.20
74809;DHT22;63338;39.544;2.596;2023-08-24T00:17:34;28.40;80.30
74809;DHT22;63338;39.544;2.596;2023-08-24T00:20:01;28.30;80.10
74809;DHT22;63338;39.544;2.596;2023-08-24T00:22:30;28.20;80.20
74809;DHT22;63338;39.544;2.596;2023-08-24T00:24:57;28.10;80.30
74809;DHT22;63338;39.544;2.596;2023-08-24T00:27:23;28.00;80.10
74809;DHT22;63338;39.544;2.596;2023-08-24T00:29:49;27.90;80.10
74809;DHT22;63338;39.544;2.596;2023-08-24T00:32:15;27.90;80.00
74809;DHT22;63338;39.544;2.596;2023-08-24T00:34:41;27.90;80.00
74809;DHT22;63338;39.544;2.596;2023-08-24T00:37:07;27.90;79.90
74809;DHT22;63338;39.544;2.596;2023-08-24T00:39:34;27.90;79.70
74809;DHT22;63338;39.544;2.596;2023-08-24T00:42:00;27.80;79.50
74809;DHT22;63338;39.544;2.596;2023-08-24T00:44:26;27.80;79.40
74809;DHT22;63338;39.544;2.596;2023-08-24T00:46:52;27.70;79.30
74809;DHT22;63338;39.544;2.596;2023-08-24T00:49:18;27.70;79.00
74809;DHT22;63338;39.544;2.596;2023-08-24T00:51:45;27.70;78.90
74809;DHT22;63338;39.544;2.596;2023-08-24T00:54:11;27.60;78.90
74809;DHT22;63338;39.544;2.596;2023-08-24T00:56:37;27.70;78.80
74809;DHT22;63338;39.544;2.596;2023-08-24T00:59:03;27.60;78.60
74809;DHT22;63338;39.544;2.596;2023-08-24T01:01:29;27.50;78.60
74809;DHT22;63338;39.544;2.596;2023-08-24T01:03:55;27.50;78.40
74809;DHT22;63338;39.544;2.596;2023-08-24T01:06:23;27.50;78.30
74809;DHT22;63338;39.544;2.596;2023-08-24T01:08:49;27.50;78.20
74809;DHT22;63338;39.544;2.596;2023-08-24T01:16:27;27.30;77.40
74809;DHT22;63338;39.544;2.596;2023-08-24T01:18:57;27.20;77.00
74809;DHT22;63338;39.544;2.596;2023-08-24T01:21:26;27.10;77.00
74809;DHT22;63338;39.544;2.596;2023-08-24T01:23:57;27.10;77.00
74809;DHT22;63338;39.544;2.596;2023-08-24T01:26:27;27.10;77.10
74809;DHT22;63338;39.544;2.596;2023-08-24T01:28:56;26.90;77.30
74809;DHT22;63338;39.544;2.596;2023-08-24T01:31:25;26.90;77.50
74809;DHT22;63338;39.544;2.596;2023-08-24T01:33:51;26.90;77.40
74809;DHT22;63338;39.544;2.596;2023-08-24T01:36:17;26.80;77.40
74809;DHT22;63338;39.544;2.596;2023-08-24T01:38:46;26.80;77.60
74809;DHT22;63338;39.544;2.596;2023-08-24T01:41:26;26.90;77.30
74809;DHT22;63338;39.544;2.596;2023-08-24T01:43:54;26.80;77.30
74809;DHT22;63338;39.544;2.596;2023-08-24T01:46:24;26.80;77.20
74809;DHT22;63338;39.544;2.596;2023-08-24T01:48:52;26.80;77.20
74809;DHT22;63338;39.544;2.596;2023-08-24T01:51:19;26.80;76.80
74809;DHT22;63338;39.544;2.596;2023-08-24T01:53:45;26.80;76.70
74809;DHT22;63338;39.544;2.596;2023-08-24T01:56:12;26.70;76.80
74809;DHT22;63338;39.544;2.596;2023-08-24T01:58:39;26.70;76.80
74809;DHT22;63338;39.544;2.596;2023-08-24T02:01:10;26.70;77.10
74809;DHT22;63338;39.544;2.596;2023-08-24T02:03:38;26.70;77.40
74809;DHT22;63338;39.544;2.596;2023-08-24T02:06:07;26.60;77.10
74809;DHT22;63338;39.544;2.596;2023-08-24T02:08:34;26.70;77.10
74809;DHT22;63338;39.544;2.596;2023-08-24T02:11:01;26.70;76.90
74809;DHT22;63338;39.544;2.596;2023-08-24T02:13:27;26.60;77.10
74809;DHT22;63338;39.544;2.596;2023-08-24T02:16:07;26.60;76.90
74809;DHT22;63338;39.544;2.596;2023-08-24T02:18:35;26.60;77.00
74809;DHT22;63338;39.544;2.596;2023-08-24T02:21:07;26.60;77.30
74809;DHT22;63338;39.544;2.596;2023-08-24T02:23:34;26.60;76.90
74809;DHT22;63338;39.544;2.596;2023-08-24T02:26:00;26.60;77.00
74809;DHT22;63338;39.544;2.596;2023-08-24T02:28:27;26.50;77.30
74809;DHT22;63338;39.544;2.596;2023-08-24T02:30:53;26.60;77.10
74809;DHT22;63338;39.544;2.596;2023-08-24T02:33:19;26.60;77.30
74809;DHT22;63338;39.544;2.596;2023-08-24T02:35:48;26.60;77.20
74809;DHT22;63338;39.544;2.596;2023-08-24T02:38:15;26.60;77.10
74809;DHT22;63338;39.544;2.596;2023-08-24T02:40:41;26.60;77.10
74809;DHT22;63338;39.544;2.596;2023-08-24T02:43:07;26.60;77.10
74809;DHT22;63338;39.544;2.596;2023-08-24T02:45:33;26.60;77.10
74809;DHT22;63338;39.544;2.596;2023-08-24T02:47:59;26.60;77.30
74809;DHT22;63338;39.544;2.596;2023-08-24T02:50:25;26.50;77.20
74809;DHT22;63338;39.544;2.596;2023-08-24T02:52:52;26.50;77.30
74809;DHT22;63338;39.544;2.596;2023-08-24T02:55:18;26.50;77.20
74809;DHT22;63338;39.544;2.596;2023-08-24T02:57:44;26.50;77.20
74809;DHT22;63338;39.544;2.596;2023-08-24T03:00:10;26.50;77.20
74809;DHT22;63338;39.544;2.596;2023-08-24T03:02:39;26.50;77.20
74809;DHT22;63338;39.544;2.596;2023-08-24T03:05:06;26.40;77.00
74809;DHT22;63338;39.544;2.596;2023-08-24T03:07:33;26.40;77.00
74809;DHT22;63338;39.544;2.596;2023-08-24T03:09:59;26.40;76.70
74809;DHT22;63338;39.544;2.596;2023-08-24T03:12:25;26.40;76.60
74809;DHT22;63338;39.544;2.596;2023-08-24T03:14:52;26.40;76.60
74809;DHT22;63338;39.544;2.596;2023-08-24T03:17:19;26.40;76.80
74809;DHT22;63338;39.544;2.596;2023-08-24T03:19:45;26.40;76.80
74809;DHT22;63338;39.544;2.596;2023-08-24T03:22:11;26.40;76.80
74809;DHT22;63338;39.544;2.596;2023-08-24T03:24:38;26.40;76.50
74809;DHT22;63338;39.544;2.596;2023-08-24T03:27:04;26.30;77.40
74809;DHT22;63338;39.544;2.596;2023-08-24T03:29:30;26.30;77.40
74809;DHT22;63338;39.544;2.596;2023-08-24T03:31:56;26.30;77.40
74809;DHT22;63338;39.544;2.596;2023-08-24T03:34:22;26.20;77.20
74809;DHT22;63338;39.544;2.596;2023-08-24T03:36:49;26.20;77.30
74809;DHT22;63338;39.544;2.596;2023-08-24T03:39:15;26.20;77.50
74809;DHT22;63338;39.544;2.596;2023-08-24T03:41:41;26.20;77.30
74809;DHT22;63338;39.544;2.596;2023-08-24T03:44:08;26.20;77.20
74809;DHT22;63338;39.544;2.596;2023-08-24T03:46:36;26.20;77.00
74809;DHT22;63338;39.544;2.596;2023-08-24T03:49:02;26.10;76.80
74809;DHT22;63338;39.544;2.596;2023-08-24T03:51:28;26.10;77.00
74809;DHT22;63338;39.544;2.596;2023-08-24T03:53:54;26.00;77.30
74809;DHT22;63338;39.544;2.596;2023-08-24T03:56:23;26.00;77.10
74809;DHT22;63338;39.544;2.596;2023-08-24T03:58:49;25.90;77.50
74809;DHT22;63338;39.544;2.596;2023-08-24T04:01:15;25.90;77.30
74809;DHT22;63338;39.544;2.596;2023-08-24T04:03:42;25.90;77.30
74809;DHT22;63338;39.544;2.596;2023-08-24T04:06:07;25.80;77.40
74809;DHT22;63338;39.544;2.596;2023-08-24T04:08:35;25.80;77.40
74809;DHT22;63338;39.544;2.596;2023-08-24T04:11:01;25.80;77.40
74809;DHT22;63338;39.544;2.596;2023-08-24T04:13:27;25.80;77.40
74809;DHT22;63338;39.544;2.596;2023-08-24T04:15:53;25.90;77.30
74809;DHT22;63338;39.544;2.596;2023-08-24T04:18:19;25.90;77.20
74809;DHT22;63338;39.544;2.596;2023-08-24T04:20:45;25.90;77.40
74809;DHT22;63338;39.544;2.596;2023-08-24T04:23:13;25.90;77.60
74809;DHT22;63338;39.544;2.596;2023-08-24T04:25:40;25.90;77.50
74809;DHT22;63338;39.544;2.596;2023-08-24T04:28:06;25.90;77.50
74809;DHT22;63338;39.544;2.596;2023-08-24T04:30:32;25.90;77.60
74809;DHT22;63338;39.544;2.596;2023-08-24T04:32:59;25.90;77.50
74809;DHT22;63338;39.544;2.596;2023-08-24T04:35:25;26.00;77.50
74809;DHT22;63338;39.544;2.596;2023-08-24T04:37:52;26.00;77.60
74809;DHT22;63338;39.544;2.596;2023-08-24T04:40:18;25.90;77.70
74809;DHT22;63338;39.544;2.596;2023-08-24T04:42:44;25.90;78.00
74809;DHT22;63338;39.544;2.596;2023-08-24T04:45:10;25.90;78.00
74809;DHT22;63338;39.544;2.596;2023-08-24T04:47:37;25.90;78.00
74809;DHT22;63338;39.544;2.596;2023-08-24T04:50:05;25.90;78.10
74809;DHT22;63338;39.544;2.596;2023-08-24T04:52:32;26.00;78.20
74809;DHT22;63338;39.544;2.596;2023-08-24T04:54:57;25.90;78.40
74809;DHT22;63338;39.544;2.596;2023-08-24T04:57:24;25.90;78.40
74809;DHT22;63338;39.544;2.596;2023-08-24T04:59:50;25.80;78.50
74809;DHT22;63338;39.544;2.596;2023-08-24T05:02:16;25.90;78.60
74809;DHT22;63338;39.544;2.596;2023-08-24T05:04:42;25.80;78.70
74809;DHT22;63338;39.544;2.596;2023-08-24T05:07:09;25.90;78.70
74809;DHT22;63338;39.544;2.596;2023-08-24T05:09:36;25.80;78.80
74809;DHT22;63338;39.544;2.596;2023-08-24T05:12:02;25.80;78.80
74809;DHT22;63338;39.544;2.596;2023-08-24T05:14:28;25.80;79.00
74809;DHT22;63338;39.544;2.596;2023-08-24T05:16:54;25.80;78.90
74809;DHT22;63338;39.544;2.596;2023-08-24T05:19:20;25.90;78.80
74809;DHT22;63338;39.544;2.596;2023-08-24T05:21:46;25.80;78.90
74809;DHT22;63338;39.544;2.596;2023-08-24T05:24:13;25.90;78.80
74809;DHT22;63338;39.544;2.596;2023-08-24T05:26:39;25.80;78.70
74809;DHT22;63338;39.544;2.596;2023-08-24T05:29:06;25.80;78.80
74809;DHT22;63338;39.544;2.596;2023-08-24T05:31:32;25.80;78.90
74809;DHT22;63338;39.544;2.596;2023-08-24T05:33:58;25.80;78.90
74809;DHT22;63338;39.544;2.596;2023-08-24T05:36:25;25.90;78.70
74809;DHT22;63338;39.544;2.596;2023-08-24T05:38:51;25.80;78.80
74809;DHT22;63338;39.544;2.596;2023-08-24T05:41:21;25.80;78.70
74809;DHT22;63338;39.544;2.596;2023-08-24T05:43:47;25.80;78.40
74809;DHT22;63338;39.544;2.596;2023-08-24T05:46:13;25.80;78.50
74809;DHT22;63338;39.544;2.596;2023-08-24T05:48:40;25.90;78.60
74809;DHT22;63338;39.544;2.596;2023-08-24T05:51:06;26.00;78.40
74809;DHT22;63338;39.544;2.596;2023-08-24T05:53:35;26.00;78.30
74809;DHT22;63338;39.544;2.596;2023-08-24T05:56:03;26.10;77.90
74809;DHT22;63338;39.544;2.596;2023-08-24T05:58:34;26.20;77.80
74809;DHT22;63338;39.544;2.596;2023-08-24T06:01:00;26.30;77.50
74809;DHT22;63338;39.544;2.596;2023-08-24T06:03:26;26.30;77.50
74809;DHT22;63338;39.544;2.596;2023-08-24T06:05:52;26.50;76.70
74809;DHT22;63338;39.544;2.596;2023-08-24T06:08:19;26.50;76.90
74809;DHT22;63338;39.544;2.596;2023-08-24T06:10:45;26.60;76.80
74809;DHT22;63338;39.544;2.596;2023-08-24T06:13:11;26.70;76.60
74809;DHT22;63338;39.544;2.596;2023-08-24T06:15:37;26.80;76.50
74809;DHT22;63338;39.544;2.596;2023-08-24T06:18:04;26.90;76.50
74809;DHT22;63338;39.544;2.596;2023-08-24T06:20:30;27.00;76.10
74809;DHT22;63338;39.544;2.596;2023-08-24T06:23:20;27.10;76.00
74809;DHT22;63338;39.544;2.596;2023-08-24T06:26:05;27.30;76.00
74809;DHT22;63338;39.544;2.596;2023-08-24T06:28:39;27.40;75.40
74809;DHT22;63338;39.544;2.596;2023-08-24T06:31:05;27.60;74.90
74809;DHT22;63338;39.544;2.596;2023-08-24T06:33:34;27.80;75.10
74809;DHT22;63338;39.544;2.596;2023-08-24T06:36:06;27.90;75.10
74809;DHT22;63338;39.544;2.596;2023-08-24T06:38:46;28.00;75.20
74809;DHT22;63338;39.544;2.596;2023-08-24T06:41:20;28.20;75.10
74809;DHT22;63338;39.544;2.596;2023-08-24T06:43:46;28.30;75.20
74809;DHT22;63338;39.544;2.596;2023-08-24T06:46:19;28.50;75.10
74809;DHT22;63338;39.544;2.596;2023-08-24T06:48:55;28.60;75.00
74809;DHT22;63338;39.544;2.596;2023-08-24T06:51:28;28.70;74.40
74809;DHT22;63338;39.544;2.596;2023-08-24T06:53:54;28.90;74.40
74809;DHT22;63338;39.544;2.596;2023-08-24T06:56:30;29.00;74.20
74809;DHT22;63338;39.544;2.596;2023-08-24T06:59:13;29.10;73.10
74809;DHT22;63338;39.544;2.596;2023-08-24T07:01:50;29.30;72.40
74809;DHT22;63338;39.544;2.596;2023-08-24T07:04:26;29.40;72.30
74809;DHT22;63338;39.544;2.596;2023-08-24T07:06:54;29.60;72.80
74809;DHT22;63338;39.544;2.596;2023-08-24T07:09:31;29.60;72.90
74809;DHT22;63338;39.544;2.596;2023-08-24T07:12:19;29.70;73.10
74809;DHT22;63338;39.544;2.596;2023-08-24T07:15:37;29.90;74.60
74809;DHT22;63338;39.544;2.596;2023-08-24T07:18:17;30.00;74.90
74809;DHT22;63338;39.544;2.596;2023-08-24T07:20:49;30.00;75.10
74809;DHT22;63338;39.544;2.596;2023-08-24T07:23:15;30.10;75.40
74809;DHT22;63338;39.544;2.596;2023-08-24T07:25:45;30.30;75.40
74809;DHT22;63338;39.544;2.596;2023-08-24T07:28:11;30.30;75.00
74809;DHT22;63338;39.544;2.596;2023-08-24T07:30:38;30.50;75.00
74809;DHT22;63338;39.544;2.596;2023-08-24T07:33:04;30.50;75.00
74809;DHT22;63338;39.544;2.596;2023-08-24T07:35:33;30.60;74.80
74809;DHT22;63338;39.544;2.596;2023-08-24T07:38:22;30.60;75.00
74809;DHT22;63338;39.544;2.596;2023-08-24T07:40:55;30.70;75.60
74809;DHT22;63338;39.544;2.596;2023-08-24T07:43:31;30.80;75.00
74809;DHT22;63338;39.544;2.596;2023-08-24T07:46:06;30.80;75.20
74809;DHT22;63338;39.544;2.596;2023-08-24T07:48:43;30.90;75.50
74809;DHT22;63338;39.544;2.596;2023-08-24T07:51:32;30.90;75.90
74809;DHT22;63338;39.544;2.596;2023-08-24T07:54:04;30.90;75.90
74809;DHT22;63338;39.544;2.596;2023-08-24T07:56:36;31.00;76.40
74809;DHT22;63338;39.544;2.596;2023-08-24T07:59:13;31.10;76.40
74809;DHT22;63338;39.544;2.596;2023-08-24T08:02:13;31.00;76.30
74809;DHT22;63338;39.544;2.596;2023-08-24T08:04:56;31.00;76.30
74809;DHT22;63338;39.544;2.596;2023-08-24T08:07:31;31.10;76.40
74809;DHT22;63338;39.544;2.596;2023-08-24T08:10:00;31.20;76.50
74809;DHT22;63338;39.544;2.596;2023-08-24T08:12:26;31.20;76.10
74809;DHT22;63338;39.544;2.596;2023-08-24T08:14:58;31.30;76.60
74809;DHT22;63338;39.544;2.596;2023-08-24T08:17:37;31.40;76.20
74809;DHT22;63338;39.544;2.596;2023-08-24T08:20:09;31.60;76.30
74809;DHT22;63338;39.544;2.596;2023-08-24T08:22:40;31.90;75.00
74809;DHT22;63338;39.544;2.596;2023-08-24T08:25:20;32.20;74.10
74809;DHT22;63338;39.544;2.596;2023-08-24T08:28:01;32.50;73.30
74809;DHT22;63338;39.544;2.596;2023-08-24T08:30:37;33.10;71.80
74809;DHT22;63338;39.544;2.596;2023-08-24T08:33:03;33.50;71.20
74809;DHT22;63338;39.544;2.596;2023-08-24T08:35:32;33.90;69.70
74809;DHT22;63338;39.544;2.596;2023-08-24T08:37:58;34.20;69.20
74809;DHT22;63338;39.544;2.596;2023-08-24T08:40:26;34.50;68.40
74809;DHT22;63338;39.544;2.596;2023-08-24T08:42:59;34.80;67.70
74809;DHT22;63338;39.544;2.596;2023-08-24T08:45:25;35.00;66.80
74809;DHT22;63338;39.544;2.596;2023-08-24T08:47:57;35.30;66.70
74809;DHT22;63338;39.544;2.596;2023-08-24T08:50:25;35.40;65.80
74809;DHT22;63338;39.544;2.596;2023-08-24T08:52:59;35.50;66.00
74809;DHT22;63338;39.544;2.596;2023-08-24T08:55:25;35.60;65.70
74809;DHT22;63338;39.544;2.596;2023-08-24T08:57:53;35.80;65.30
74809;DHT22;63338;39.544;2.596;2023-08-24T09:00:24;36.10;64.30
74809;DHT22;63338;39.544;2.596;2023-08-24T09:02:52;36.50;64.20
74809;DHT22;63338;39.544;2.596;2023-08-24T09:05:19;36.60;63.80
74809;DHT22;63338;39.544;2.596;2023-08-24T09:07:49;36.70;63.60
74809;DHT22;63338;39.544;2.596;2023-08-24T09:10:15;36.40;63.20
74809;DHT22;63338;39.544;2.596;2023-08-24T09:12:41;36.60;63.50
74809;DHT22;63338;39.544;2.596;2023-08-24T09:15:08;36.30;63.70
74809;DHT22;63338;39.544;2.596;2023-08-24T09:17:34;36.10;63.80
74809;DHT22;63338;39.544;2.596;2023-08-24T09:20:07;36.40;63.00
74809;DHT22;63338;39.544;2.596;2023-08-24T09:22:36;36.60;63.50
74809;DHT22;63338;39.544;2.596;2023-08-24T09:25:04;36.60;62.60
74809;DHT22;63338;39.544;2.596;2023-08-24T09:27:32;36.20;63.00
74809;DHT22;63338;39.544;2.596;2023-08-24T09:30:00;36.20;62.60
74809;DHT22;63338;39.544;2.596;2023-08-24T09:32:30;36.20;63.10
74809;DHT22;63338;39.544;2.596;2023-08-24T09:35:04;36.30;62.90
74809;DHT22;63338;39.544;2.596;2023-08-24T09:37:33;36.10;62.70
74809;DHT22;63338;39.544;2.596;2023-08-24T09:40:07;35.70;62.80
74809;DHT22;63338;39.544;2.596;2023-08-24T09:42:45;35.50;63.80
74809;DHT22;63338;39.544;2.596;2023-08-24T09:45:12;35.30;62.90
74809;DHT22;63338;39.544;2.596;2023-08-24T09:47:39;35.10;63.80
74809;DHT22;63338;39.544;2.596;2023-08-24T09:50:05;35.00;62.40
74809;DHT22;63338;39.544;2.596;2023-08-24T09:52:33;34.90;62.30
74809;DHT22;63338;39.544;2.596;2023-08-24T09:55:04;34.80;61.30
74809;DHT22;63338;39.544;2.596;2023-08-24T09:57:38;34.80;60.50
74809;DHT22;63338;39.544;2.596;2023-08-24T10:00:07;34.80;58.70
74809;DHT22;63338;39.544;2.596;2023-08-24T10:02:49;34.80;57.10
74809;DHT22;63338;39.544;2.596;2023-08-24T10:05:26;34.90;57.40
74809;DHT22;63338;39.544;2.596;2023-08-24T10:07:55;35.30;57.40
74809;DHT22;63338;39.544;2.596;2023-08-24T10:10:25;35.60;56.90
74809;DHT22;63338;39.544;2.596;2023-08-24T10:12:56;36.20;57.50
74809;DHT22;63338;39.544;2.596;2023-08-24T10:15:24;36.80;57.70
74809;DHT22;63338;39.544;2.596;2023-08-24T10:17:52;37.10;57.60
74809;DHT22;63338;39.544;2.596;2023-08-24T10:20:20;37.20;58.00
74809;DHT22;63338;39.544;2.596;2023-08-24T10:22:49;37.40;53.00
74809;DHT22;63338;39.544;2.596;2023-08-24T10:25:17;37.70;56.40
74809;DHT22;63338;39.544;2.596;2023-08-24T10:27:45;37.90;55.10
74809;DHT22;63338;39.544;2.596;2023-08-24T10:30:18;37.80;54.80
74809;DHT22;63338;39.544;2.596;2023-08-24T10:35:46;37.80;51.80
74809;DHT22;63338;39.544;2.596;2023-08-24T10:38:29;38.10;52.30
74809;DHT22;63338;39.544;2.596;2023-08-24T10:41:03;38.50;52.40
74809;DHT22;63338;39.544;2.596;2023-08-24T10:43:30;38.70;52.60
74809;DHT22;63338;39.544;2.596;2023-08-24T10:46:03;38.90;52.50
74809;DHT22;63338;39.544;2.596;2023-08-24T10:48:58;39.30;48.80
74809;DHT22;63338;39.544;2.596;2023-08-24T10:51:26;39.30;49.60
74809;DHT22;63338;39.544;2.596;2023-08-24T10:54:03;39.30;52.20
74809;DHT22;63338;39.544;2.596;2023-08-24T10:56:35;39.00;52.40
74809;DHT22;63338;39.544;2.596;2023-08-24T10:59:17;38.50;50.80
74809;DHT22;63338;39.544;2.596;2023-08-24T11:04:20;38.40;50.30
74809;DHT22;63338;39.544;2.596;2023-08-24T11:06:58;38.40;47.60
74809;DHT22;63338;39.544;2.596;2023-08-24T11:09:50;38.10;45.10
74809;DHT22;63338;39.544;2.596;2023-08-24T11:15:49;37.40;46.70
74809;DHT22;63338;39.544;2.596;2023-08-24T11:18:39;37.40;48.20
74809;DHT22;63338;39.544;2.596;2023-08-24T11:21:10;37.30;48.60
74809;DHT22;63338;39.544;2.596;2023-08-24T11:24:00;36.90;48.60
74809;DHT22;63338;39.544;2.596;2023-08-24T11:26:32;36.90;47.00
74809;DHT22;63338;39.544;2.596;2023-08-24T11:28:59;37.00;47.00
74809;DHT22;63338;39.544;2.596;2023-08-24T11:31:32;36.90;48.30
74809;DHT22;63338;39.544;2.596;2023-08-24T11:34:01;36.70;47.90
74809;DHT22;63338;39.544;2.596;2023-08-24T11:36:27;36.60;48.50
74809;DHT22;63338;39.544;2.596;2023-08-24T11:39:17;36.60;45.70
74809;DHT22;63338;39.544;2.596;2023-08-24T11:42:05;36.60;47.80
74809;DHT22;63338;39.544;2.596;2023-08-24T11:45:22;36.70;46.90
74809;DHT22;63338;39.544;2.596;2023-08-24T11:48:15;36.80;46.90
74809;DHT22;63338;39.544;2.596;2023-08-24T11:51:08;36.90;47.00
74809;DHT22;63338;39.544;2.596;2023-08-24T11:53:56;36.90;44.20
74809;DHT22;63338;39.544;2.596;2023-08-24T11:56:46;36.70;46.10
74809;DHT22;63338;39.544;2.596;2023-08-24T11:59:48;36.70;45.80
74809;DHT22;63338;39.544;2.596;2023-08-24T12:02:31;36.40;44.40
74809;DHT22;63338;39.544;2.596;2023-08-24T12:05:11;35.90;46.90
74809;DHT22;63338;39.544;2.596;2023-08-24T12:15:40;35.50;48.40
74809;DHT22;63338;39.544;2.596;2023-08-24T12:18:16;35.30;45.30
74809;DHT22;63338;39.544;2.596;2023-08-24T12:21:44;35.20;45.70
74809;DHT22;63338;39.544;2.596;2023-08-24T12:25:10;35.10;48.80
74809;DHT22;63338;39.544;2.596;2023-08-24T12:28:30;35.10;49.10
74809;DHT22;63338;39.544;2.596;2023-08-24T12:31:29;34.90;49.20
74809;DHT22;63338;39.544;2.596;2023-08-24T12:34:29;34.70;46.70
74809;DHT22;63338;39.544;2.596;2023-08-24T12:37:37;34.80;47.30
74809;DHT22;63338;39.544;2.596;2023-08-24T12:40:09;34.60;42.30
74809;DHT22;63338;39.544;2.596;2023-08-24T12:42:36;34.60;44.30
74809;DHT22;63338;39.544;2.596;2023-08-24T12:45:06;34.60;44.60
74809;DHT22;63338;39.544;2.596;2023-08-24T12:47:33;34.70;46.20
74809;DHT22;63338;39.544;2.596;2023-08-24T12:50:06;34.60;44.70
74809;DHT22;63338;39.544;2.596;2023-08-24T12:52:35;34.60;42.50
74809;DHT22;63338;39.544;2.596;2023-08-24T12:55:08;34.60;46.10
74809;DHT22;63338;39.544;2.596;2023-08-24T12:57:38;34.70;46.20
74809;DHT22;63338;39.544;2.596;2023-08-24T13:00:05;34.70;45.30
74809;DHT22;63338;39.544;2.596;2023-08-24T13:02:36;34.70;43.70
74809;DHT22;63338;39.544;2.596;2023-08-24T13:05:07;34.70;42.40
74809;DHT22;63338;39.544;2.596;2023-08-24T13:07:40;34.70;39.70
74809;DHT22;63338;39.544;2.596;2023-08-24T13:10:07;34.70;43.40
74809;DHT22;63338;39.544;2.596;2023-08-24T13:12:35;34.70;43.70
74809;DHT22;63338;39.544;2.596;2023-08-24T13:15:02;34.60;44.00
74809;DHT22;63338;39.544;2.596;2023-08-24T13:17:32;34.50;44.50
74809;DHT22;63338;39.544;2.596;2023-08-24T13:20:01;34.50;43.90
74809;DHT22;63338;39.544;2.596;2023-08-24T13:22:32;34.50;45.30
74809;DHT22;63338;39.544;2.596;2023-08-24T13:24:58;34.40;43.20
74809;DHT22;63338;39.544;2.596;2023-08-24T13:27:28;34.40;42.90
74809;DHT22;63338;39.544;2.596;2023-08-24T13:30:14;34.40;47.50
74809;DHT22;63338;39.544;2.596;2023-08-24T13:32:40;34.40;48.00
74809;DHT22;63338;39.544;2.596;2023-08-24T13:35:07;34.30;54.10
74809;DHT22;63338;39.544;2.596;2023-08-24T13:37:38;34.20;55.70
74809;DHT22;63338;39.544;2.596;2023-08-24T13:40:07;34.00;57.40
74809;DHT22;63338;39.544;2.596;2023-08-24T13:42:34;33.80;60.50
74809;DHT22;63338;39.544;2.596;2023-08-24T13:45:00;33.60;59.50
74809;DHT22;63338;39.544;2.596;2023-08-24T13:47:28;33.60;59.50
74809;DHT22;63338;39.544;2.596;2023-08-24T13:50:01;33.40;60.70
74809;DHT22;63338;39.544;2.596;2023-08-24T13:52:31;33.40;59.70
74809;DHT22;63338;39.544;2.596;2023-08-24T13:55:02;33.20;62.30
74809;DHT22;63338;39.544;2.596;2023-08-24T13:57:30;33.20;60.90
74809;DHT22;63338;39.544;2.596;2023-08-24T13:59:58;33.10;62.00
74809;DHT22;63338;39.544;2.596;2023-08-24T14:02:27;33.00;59.10
74809;DHT22;63338;39.544;2.596;2023-08-24T14:05:12;33.00;57.30
74809;DHT22;63338;39.544;2.596;2023-08-24T14:07:51;32.90;57.50
74809;DHT22;63338;39.544;2.596;2023-08-24T14:10:38;32.80;58.90
74809;DHT22;63338;39.544;2.596;2023-08-24T14:13:15;32.80;58.50
74809;DHT22;63338;39.544;2.596;2023-08-24T14:19:45;32.60;59.80
74809;DHT22;63338;39.544;2.596;2023-08-24T14:22:12;32.70;60.60
74809;DHT22;63338;39.544;2.596;2023-08-24T14:32:53;32.60;64.90
74809;DHT22;63338;39.544;2.596;2023-08-24T14:35:34;32.50;66.70
74809;DHT22;63338;39.544;2.596;2023-08-24T14:42:46;32.30;68.10
74809;DHT22;63338;39.544;2.596;2023-08-24T14:49:36;32.20;68.60
74809;DHT22;63338;39.544;2.596;2023-08-24T14:52:08;32.20;68.80
74809;DHT22;63338;39.544;2.596;2023-08-24T14:54:35;32.00;67.20
74809;DHT22;63338;39.544;2.596;2023-08-24T14:57:06;32.00;66.80
74809;DHT22;63338;39.544;2.596;2023-08-24T14:59:37;32.00;66.10
74809;DHT22;63338;39.544;2.596;2023-08-24T15:02:07;32.00;66.40
74809;DHT22;63338;39.544;2.596;2023-08-24T15:04:40;31.90;66.60
74809;DHT22;63338;39.544;2.596;2023-08-24T15:07:09;31.90;67.00
74809;DHT22;63338;39.544;2.596;2023-08-24T15:09:38;32.00;66.60
74809;DHT22;63338;39.544;2.596;2023-08-24T15:12:09;31.90;65.70
74809;DHT22;63338;39.544;2.596;2023-08-24T15:18:10;31.90;67.50
74809;DHT22;63338;39.544;2.596;2023-08-24T15:20:43;31.90;67.60
74809;DHT22;63338;39.544;2.596;2023-08-24T15:23:26;31.90;66.80
74809;DHT22;63338;39.544;2.596;2023-08-24T15:25:58;31.70;68.70
74809;DHT22;63338;39.544;2.596;2023-08-24T15:28:37;31.70;68.10
74809;DHT22;63338;39.544;2.596;2023-08-24T15:31:22;31.70;69.00
74809;DHT22;63338;39.544;2.596;2023-08-24T15:33:54;31.60;68.90
74809;DHT22;63338;39.544;2.596;2023-08-24T15:36:21;31.60;66.70
74809;DHT22;63338;39.544;2.596;2023-08-24T15:38:48;31.60;67.30
74809;DHT22;63338;39.544;2.596;2023-08-24T15:41:17;31.50;66.70
74809;DHT22;63338;39.544;2.596;2023-08-24T15:43:45;31.50;68.50
74809;DHT22;63338;39.544;2.596;2023-08-24T15:46:16;31.60;68.00
74809;DHT22;63338;39.544;2.596;2023-08-24T15:52:58;31.50;69.40
74809;DHT22;63338;39.544;2.596;2023-08-24T15:58:48;31.30;69.20
74809;DHT22;63338;39.544;2.596;2023-08-24T16:01:35;31.40;69.80
74809;DHT22;63338;39.544;2.596;2023-08-24T16:04:10;31.40;69.20
74809;DHT22;63338;39.544;2.596;2023-08-24T16:07:13;31.40;69.00
74809;DHT22;63338;39.544;2.596;2023-08-24T16:13:11;31.30;68.60
74809;DHT22;63338;39.544;2.596;2023-08-24T16:16:04;31.20;68.90
74809;DHT22;63338;39.544;2.596;2023-08-24T16:18:44;31.20;68.80
74809;DHT22;63338;39.544;2.596;2023-08-24T16:21:46;31.20;67.80
74809;DHT22;63338;39.544;2.596;2023-08-24T16:24:55;31.10;68.50
74809;DHT22;63338;39.544;2.596;2023-08-24T16:27:51;31.20;69.70
74809;DHT22;63338;39.544;2.596;2023-08-24T16:30:21;31.10;68.40
74809;DHT22;63338;39.544;2.596;2023-08-24T16:36:24;31.10;68.00
74809;DHT22;63338;39.544;2.596;2023-08-24T16:39:27;31.10;68.40
74809;DHT22;63338;39.544;2.596;2023-08-24T16:42:07;30.90;66.30
74809;DHT22;63338;39.544;2.596;2023-08-24T16:45:18;31.00;65.70
74809;DHT22;63338;39.544;2.596;2023-08-24T16:48:08;31.10;68.10
74809;DHT22;63338;39.544;2.596;2023-08-24T16:51:10;31.20;67.30
74809;DHT22;63338;39.544;2.596;2023-08-24T16:53:45;31.20;65.70
74809;DHT22;63338;39.544;2.596;2023-08-24T16:57:07;31.20;66.60
74809;DHT22;63338;39.544;2.596;2023-08-24T17:00:16;31.30;65.00
74809;DHT22;63338;39.544;2.596;2023-08-24T17:09:53;31.40;63.90